Time;durP1;ratioP1;P1;durP2;ratioP2;P2;SDS_P1;SDS_P2;PMS_P1;PMS_P2;Temp;Humidity;BMP_temperature;BMP_pressure;BME280_temperature;BME280_humidity;BME280_pressure;Samples;Min_cycle;Max_cycle;Signal;HPM_P1;HPM_P2
2023/10/18 00:02:53;;;;;;;9.57;4.55;;;;;;;5.07;100.00;101049.78;4979636;28;20133;-67
2023/10/18 00:05:21;;;;;;;7.45;4.60;;;;;;;5.05;100.00;101046.50;4985522;28;20456;-67
2023/10/18 00:07:48;;;;;;;7.45;4.40;;;;;;;5.05;100.00;101046.50;4965736;28;20445;-67
2023/10/18 00:10:18;;;;;;;8.23;4.20;;;;;;;5.03;100.00;101045.81;4983152;28;20026;-67
2023/10/18 00:12:44;;;;;;;9.23;4.65;;;;;;;5.03;100.00;101046.59;4983503;28;20076;-67
2023/10/18 00:15:11;;;;;;;9.00;4.38;;;;;;;5.02;100.00;101034.69;4980366;28;20065;-67
2023/10/18 00:17:38;;;;;;;7.30;4.00;;;;;;;5.02;100.00;101036.44;4963310;28;20049;-67
2023/10/18 00:20:13;;;;;;;9.40;4.43;;;;;;;5.01;100.00;101039.94;4981704;28;20511;-67
2023/10/18 00:22:43;;;;;;;8.48;4.20;;;;;;;4.99;100.00;101032.34;4975139;28;20683;-67
2023/10/18 00:25:12;;;;;;;10.23;4.65;;;;;;;5.00;100.00;101030.59;4983967;28;20654;-67
2023/10/18 00:27:46;;;;;;;7.93;4.35;;;;;;;5.15;100.00;101026.88;4966760;28;20041;-67
2023/10/18 00:30:12;;;;;;;7.55;4.15;;;;;;;5.21;100.00;101028.16;4969182;28;20045;-67
2023/10/18 00:32:44;;;;;;;7.45;4.22;;;;;;;5.18;100.00;101025.81;4982915;28;20034;-67
2023/10/18 00:35:20;;;;;;;10.00;4.87;;;;;;;5.19;100.00;101022.31;4984738;28;20088;-67
2023/10/18 00:37:54;;;;;;;7.40;3.75;;;;;;;5.34;100.00;101017.78;4983456;28;20480;-67
2023/10/18 00:42:52;;;;;;;10.73;3.88;;;;;;;5.46;100.00;101027.97;4976640;28;20046;-67
2023/10/18 00:45:21;;;;;;;9.18;3.92;;;;;;;5.40;100.00;101022.44;4987560;28;20026;-67
2023/10/18 00:47:47;;;;;;;6.45;3.78;;;;;;;5.39;100.00;101018.25;4978744;28;20035;-67
2023/10/18 00:50:14;;;;;;;8.77;4.43;;;;;;;5.52;100.00;101020.69;4969898;28;20038;-67
2023/10/18 00:52:40;;;;;;;7.63;4.00;;;;;;;5.38;100.00;101016.59;4967464;28;20615;-67
2023/10/18 00:55:09;;;;;;;7.10;4.10;;;;;;;5.35;100.00;101022.81;4981119;28;20400;-67
2023/10/18 00:57:36;;;;;;;7.43;4.05;;;;;;;5.33;100.00;101016.13;4978841;28;20640;-67
2023/10/18 01:00:12;;;;;;;7.35;3.80;;;;;;;5.36;100.00;101014.16;4963122;28;20085;-67
2023/10/18 01:02:42;;;;;;;7.30;4.18;;;;;;;5.31;100.00;101020.56;4979269;28;20767;-67
2023/10/18 01:05:14;;;;;;;8.35;3.70;;;;;;;5.38;100.00;101009.69;4969714;28;20156;-67
2023/10/18 01:07:40;;;;;;;13.20;3.55;;;;;;;5.34;100.00;101004.91;4977220;28;20043;-67
2023/10/18 01:10:09;;;;;;;8.93;3.83;;;;;;;5.31;100.00;101002.56;4961650;28;20555;-67
2023/10/18 01:12:34;;;;;;;9.52;4.00;;;;;;;5.36;100.00;101000.47;4966550;28;20038;-67
2023/10/18 01:15:01;;;;;;;11.25;3.75;;;;;;;5.28;100.00;100997.69;4970370;28;20038;-67
2023/10/18 01:17:27;;;;;;;8.82;3.78;;;;;;;5.24;100.00;100991.94;4969047;28;20496;-67
2023/10/18 01:19:53;;;;;;;11.00;3.90;;;;;;;5.18;100.00;100990.66;4981196;28;20035;-67
2023/10/18 01:22:19;;;;;;;8.90;3.67;;;;;;;5.22;100.00;100988.69;4964184;28;20038;-67
2023/10/18 01:24:46;;;;;;;6.53;4.00;;;;;;;5.20;100.00;100980.25;4967778;28;20061;-67
2023/10/18 01:27:12;;;;;;;7.47;3.88;;;;;;;5.18;100.00;100976.97;4951131;28;20042;-67
2023/10/18 01:29:39;;;;;;;9.18;4.10;;;;;;;5.20;100.00;100975.13;4966687;28;20084;-67
2023/10/18 01:32:04;;;;;;;11.60;4.00;;;;;;;5.21;100.00;100974.16;4975008;28;20053;-67
2023/10/18 01:34:31;;;;;;;7.25;3.83;;;;;;;5.20;100.00;100975.13;4963211;28;20022;-67
2023/10/18 01:36:59;;;;;;;9.25;4.22;;;;;;;5.16;100.00;100971.13;4970097;28;20068;-67
2023/10/18 01:39:29;;;;;;;8.30;3.80;;;;;;;5.14;100.00;100970.44;4980732;28;20078;-67
2023/10/18 01:41:54;;;;;;;10.38;4.50;;;;;;;5.13;100.00;100966.22;4965676;28;20035;-67
2023/10/18 01:44:33;;;;;;;9.38;3.78;;;;;;;5.33;100.00;100967.25;4980962;28;20045;-67
2023/10/18 01:47:06;;;;;;;9.25;3.40;;;;;;;5.30;100.00;100967.53;4964797;28;20085;-67
2023/10/18 01:49:32;;;;;;;9.07;3.60;;;;;;;5.29;100.00;100953.00;4981287;28;20054;-67
2023/10/18 01:52:04;;;;;;;7.70;3.45;;;;;;;5.22;100.00;100963.78;4983369;28;20085;-67
2023/10/18 01:54:29;;;;;;;7.60;4.43;;;;;;;5.30;100.00;100946.94;4981984;28;20039;-67
2023/10/18 01:56:57;;;;;;;7.68;3.85;;;;;;;5.22;100.00;100953.50;4965660;28;20485;-67
2023/10/18 01:59:30;;;;;;;5.35;3.20;;;;;;;5.15;100.00;100948.94;4981897;28;20049;-67
2023/10/18 02:01:59;;;;;;;4.97;3.28;;;;;;;5.11;100.00;100939.81;4964977;28;20046;-67
2023/10/18 02:04:31;;;;;;;6.88;3.50;;;;;;;5.14;100.00;100934.44;4982834;28;20030;-67
2023/10/18 02:06:59;;;;;;;5.50;3.30;;;;;;;5.07;100.00;100934.91;4981122;28;20049;-67
2023/10/18 02:09:52;;;;;;;5.80;3.67;;;;;;;5.10;100.00;100926.13;4967256;28;20552;-67
2023/10/18 02:12:21;;;;;;;5.80;3.58;;;;;;;5.05;100.00;100911.06;4980740;28;20831;-67
2023/10/18 02:14:49;;;;;;;7.65;3.95;;;;;;;5.03;100.00;100915.53;4981121;28;20194;-67
2023/10/18 02:17:18;;;;;;;7.25;4.00;;;;;;;5.03;100.00;100912.94;4967118;28;20038;-68
2023/10/18 02:19:44;;;;;;;6.03;3.95;;;;;;;5.14;100.00;100914.72;4980690;28;20033;-67
2023/10/18 02:22:13;;;;;;;9.85;4.13;;;;;;;5.09;100.00;100910.84;4967791;28;20512;-67
2023/10/18 02:24:39;;;;;;;6.75;3.92;;;;;;;5.10;100.00;100910.72;4981701;28;20043;-67
2023/10/18 02:27:09;;;;;;;8.07;3.85;;;;;;;5.09;100.00;100910.84;4977104;28;20039;-67
2023/10/18 02:29:35;;;;;;;9.70;4.28;;;;;;;5.04;100.00;100908.63;4967063;28;20066;-67
2023/10/18 02:32:04;;;;;;;8.93;4.10;;;;;;;5.11;100.00;100907.22;4976016;28;20043;-67
2023/10/18 02:34:34;;;;;;;7.35;3.80;;;;;;;5.11;100.00;100908.97;4980055;28;20026;-67
2023/10/18 02:37:01;;;;;;;9.13;4.00;;;;;;;5.09;100.00;100908.28;4975805;28;20544;-67
2023/10/18 02:39:32;;;;;;;7.43;4.15;;;;;;;5.10;100.00;100912.47;4982285;28;20037;-67
2023/10/18 02:41:58;;;;;;;5.13;3.80;;;;;;;5.05;100.00;100907.69;4982085;28;20037;-67
2023/10/18 02:44:25;;;;;;;7.72;3.67;;;;;;;5.05;100.00;100897.41;4977432;28;20042;-67
2023/10/18 02:46:55;;;;;;;6.30;3.85;;;;;;;5.18;100.00;100904.97;4979530;28;20131;-67
2023/10/18 02:49:27;;;;;;;8.48;4.10;;;;;;;5.34;100.00;100899.47;4979023;28;20377;-67
2023/10/18 02:51:53;;;;;;;13.00;4.00;;;;;;;5.20;99.96;100901.38;4984689;28;20084;-67
2023/10/18 02:54:22;;;;;;;8.43;4.03;;;;;;;5.17;100.00;100888.75;4985731;28;20126;-67
2023/10/18 02:56:50;;;;;;;5.80;3.67;;;;;;;5.11;100.00;100885.84;4978673;28;20077;-67
2023/10/18 02:59:18;;;;;;;9.13;3.30;;;;;;;5.04;100.00;100891.44;4979418;28;20070;-68
2023/10/18 03:01:44;;;;;;;6.88;3.85;;;;;;;5.03;100.00;100892.38;4976872;28;20038;-67
2023/10/18 03:04:16;;;;;;;6.82;3.60;;;;;;;5.00;100.00;100881.53;4965616;28;20497;-67
2023/10/18 03:06:50;;;;;;;7.50;3.50;;;;;;;4.94;100.00;100877.66;4967522;28;20483;-68
2023/10/18 03:12:00;;;;;;;8.20;4.22;;;;;;;5.01;100.00;100866.00;4981085;28;20049;-67
2023/10/18 03:17:23;;;;;;;7.95;3.17;;;;;;;4.88;100.00;100868.69;4980702;28;20493;-67
2023/10/18 03:19:50;;;;;;;5.68;3.55;;;;;;;4.86;100.00;100867.97;4987264;28;20034;-67
2023/10/18 03:22:20;;;;;;;7.88;3.85;;;;;;;4.83;100.00;100865.63;4981548;28;20104;-67
2023/10/18 03:24:54;;;;;;;6.47;3.42;;;;;;;4.80;100.00;100858.19;4985375;28;20077;-67
2023/10/18 03:27:20;;;;;;;8.85;3.63;;;;;;;4.81;100.00;100857.22;4982765;28;20531;-67
2023/10/18 03:29:48;;;;;;;6.10;3.47;;;;;;;4.80;100.00;100853.03;4985069;28;20030;-67
2023/10/18 03:32:19;;;;;;;6.20;3.80;;;;;;;4.80;100.00;100842.75;4980406;28;20737;-66
2023/10/18 03:34:45;;;;;;;5.93;3.60;;;;;;;4.80;100.00;100847.06;4980374;28;20081;-66
2023/10/18 03:37:26;;;;;;;6.90;3.38;;;;;;;4.78;100.00;100844.59;4980653;28;20538;-66
2023/10/18 03:39:55;;;;;;;13.45;4.25;;;;;;;4.76;100.00;100841.34;4967174;28;20130;-66
2023/10/18 03:42:31;;;;;;;7.05;3.60;;;;;;;4.75;100.00;100832.00;4966528;28;20045;-66
2023/10/18 03:45:01;;;;;;;8.18;3.47;;;;;;;4.78;100.00;100836.91;4985029;28;20080;-66
2023/10/18 03:47:36;;;;;;;7.55;3.53;;;;;;;4.78;100.00;100834.31;4966227;28;20049;-66
2023/10/18 03:50:02;;;;;;;8.73;4.90;;;;;;;4.75;100.00;100829.44;4985100;28;20172;-66
2023/10/18 03:52:29;;;;;;;4.50;3.53;;;;;;;4.73;100.00;100833.88;4952432;28;20050;-66
2023/10/18 03:57:37;;;;;;;9.40;3.80;;;;;;;4.71;100.00;100825.47;4982935;28;20046;-66
2023/10/18 04:00:28;;;;;;;10.55;3.35;;;;;;;4.70;100.00;100815.31;4968648;28;20059;-67
2023/10/18 04:02:53;;;;;;;5.07;3.30;;;;;;;4.68;100.00;100811.09;4981378;28;20047;-66
2023/10/18 04:08:06;;;;;;;6.07;3.78;;;;;;;4.66;100.00;100799.31;4983678;28;20638;-66
2023/10/18 04:10:32;;;;;;;6.57;3.70;;;;;;;4.64;100.00;100801.19;4983436;28;20089;-66
2023/10/18 04:12:58;;;;;;;5.85;3.60;;;;;;;4.63;100.00;100799.53;4964849;28;20046;-66
2023/10/18 04:15:29;;;;;;;5.47;2.75;;;;;;;4.61;100.00;100799.66;4984920;28;20034;-66
2023/10/18 04:20:37;;;;;;;5.68;3.42;;;;;;;4.58;100.00;100793.97;4983908;28;20100;-66
2023/10/18 04:23:14;;;;;;;7.07;3.92;;;;;;;4.55;100.00;100778.78;4982136;28;20050;-66
2023/10/18 04:25:42;;;;;;;9.13;3.65;;;;;;;4.54;100.00;100780.53;4983023;28;20096;-66
2023/10/18 04:28:10;;;;;;;6.63;3.40;;;;;;;4.52;100.00;100777.25;4983576;28;20035;-67
2023/10/18 04:30:38;;;;;;;6.30;3.97;;;;;;;4.49;100.00;100768.03;4980161;28;20057;-66
2023/10/18 04:33:24;;;;;;;6.18;3.50;;;;;;;4.49;100.00;100772.34;4968325;28;20039;-66
2023/10/18 04:35:52;;;;;;;7.18;3.63;;;;;;;4.47;100.00;100767.31;4981784;28;20472;-66
2023/10/18 04:38:30;;;;;;;10.27;4.25;;;;;;;4.46;100.00;100770.00;4982665;28;20038;-66
2023/10/18 04:43:27;;;;;;;9.52;4.07;;;;;;;4.44;100.00;100759.84;4983893;28;20061;-66
2023/10/18 04:45:57;;;;;;;7.68;4.22;;;;;;;4.48;100.00;100757.88;4983805;28;20682;-66
2023/10/18 04:49:00;;;;;;;7.82;3.83;;;;;;;4.46;100.00;100747.72;4981100;28;20034;-66
2023/10/18 04:51:08;;;;;;;8.70;4.80;;;;;;;4.44;100.00;100743.63;4984034;28;20085;-66
2023/10/18 04:53:34;;;;;;;7.75;4.45;;;;;;;4.44;100.00;100741.88;4984132;28;20045;-66
2023/10/18 04:56:01;;;;;;;10.85;4.47;;;;;;;4.41;100.00;100739.56;4966010;28;20061;-66
2023/10/18 04:58:29;;;;;;;11.90;4.38;;;;;;;4.40;100.00;100734.53;4984026;28;20558;-66
2023/10/18 05:00:59;;;;;;;12.25;4.82;;;;;;;4.38;100.00;100733.84;4984635;28;20584;-66
2023/10/18 05:03:30;;;;;;;8.45;4.30;;;;;;;4.35;100.00;100736.63;4982176;28;20112;-66
2023/10/18 05:05:59;;;;;;;9.82;4.25;;;;;;;4.32;100.00;100732.56;4983092;28;20034;-66
2023/10/18 05:08:24;;;;;;;9.45;4.85;;;;;;;4.29;100.00;100733.63;4982904;28;20580;-66
2023/10/18 05:11:00;;;;;;;11.27;5.25;;;;;;;4.27;100.00;100726.94;4980528;28;20030;-66
2023/10/18 05:13:36;;;;;;;9.13;4.38;;;;;;;4.24;100.00;100732.31;4967932;28;20694;-67
2023/10/18 05:16:04;;;;;;;8.20;4.88;;;;;;;4.25;100.00;100727.06;4982615;28;20565;-66
2023/10/18 05:18:30;;;;;;;7.53;4.38;;;;;;;4.20;100.00;100728.34;4982653;28;20123;-66
2023/10/18 05:20:58;;;;;;;8.23;4.80;;;;;;;4.17;100.00;100733.72;4984227;28;20038;-66
2023/10/18 05:23:25;;;;;;;8.75;4.60;;;;;;;4.16;100.00;100734.63;4981742;28;20041;-66
2023/10/18 05:26:08;;;;;;;7.97;4.40;;;;;;;4.15;100.00;100731.25;4983929;28;20038;-66
2023/10/18 05:29:17;;;;;;;;;;;;;;;4.13;100.00;100730.56;4983062;28;20052;-66
2023/10/18 05:34:18;;;;;;;10.52;5.50;;;;;;;4.06;100.00;100719.13;4982580;28;20074;-66
2023/10/18 05:41:51;;;;;;;9.95;5.90;;;;;;;4.02;100.00;100720.28;4982151;28;20053;-67
2023/10/18 05:44:17;;;;;;;14.18;5.82;;;;;;;4.00;100.00;100712.69;4988227;28;20026;-66
2023/10/18 05:46:46;;;;;;;10.75;5.95;;;;;;;4.00;100.00;100707.56;4987134;28;20085;-67
2023/10/18 05:49:15;;;;;;;14.93;6.43;;;;;;;4.00;100.00;100709.31;4982344;28;20451;-66
2023/10/18 05:51:53;;;;;;;9.98;5.32;;;;;;;4.00;100.00;100706.75;4983453;28;20045;-67
2023/10/18 05:54:22;;;;;;;12.52;5.80;;;;;;;4.02;100.00;100708.28;4984616;28;20070;-66
2023/10/18 05:56:49;;;;;;;10.57;5.80;;;;;;;4.02;100.00;100699.75;4984694;28;20398;-67
2023/10/18 06:01:58;;;;;;;14.93;7.38;;;;;;;3.98;100.00;100695.81;4982784;28;20030;-67
2023/10/18 06:04:24;;;;;;;15.00;6.22;;;;;;;3.99;100.00;100692.28;4968957;28;20064;-67
2023/10/18 06:06:57;;;;;;;12.70;6.05;;;;;;;3.99;100.00;100692.28;4980001;28;20034;-66
2023/10/18 06:09:32;;;;;;;9.48;6.35;;;;;;;3.99;100.00;100687.97;4982892;28;20062;-66
2023/10/18 06:12:00;;;;;;;12.25;5.80;;;;;;;4.00;100.00;100684.47;4983079;28;20057;-66
2023/10/18 06:14:33;;;;;;;11.25;5.38;;;;;;;4.01;100.00;100690.41;4982829;28;20026;-67
2023/10/18 06:17:12;;;;;;;11.23;5.05;;;;;;;4.00;100.00;100687.03;4981951;28;20038;-66
2023/10/18 06:19:38;;;;;;;10.10;5.05;;;;;;;4.01;100.00;100688.69;4968538;28;20045;-66
2023/10/18 06:22:50;;;;;;;13.63;5.90;;;;;;;4.02;100.00;100689.50;4979974;28;20191;-67
2023/10/18 06:24:51;;;;;;;8.75;5.07;;;;;;;4.02;100.00;100679.25;4978808;28;20060;-66
2023/10/18 06:27:17;;;;;;;11.32;6.15;;;;;;;4.02;100.00;100674.91;4980629;28;20134;-66
2023/10/18 06:29:44;;;;;;;8.48;5.40;;;;;;;4.03;100.00;100689.38;4968002;28;20053;-66
2023/10/18 06:32:13;;;;;;;9.52;5.28;;;;;;;4.06;100.00;100680.63;4980488;28;20053;-66
2023/10/18 06:34:43;;;;;;;11.82;4.90;;;;;;;4.07;100.00;100677.16;4965998;28;20070;-66
2023/10/18 06:37:31;;;;;;;9.27;5.53;;;;;;;4.10;100.00;100676.88;4967543;28;20033;-67
2023/10/18 06:40:02;;;;;;;12.43;4.93;;;;;;;4.14;100.00;100669.78;4967966;28;20050;-66
2023/10/18 06:42:27;;;;;;;12.07;5.88;;;;;;;4.17;100.00;100672.13;4960875;28;20043;-66
2023/10/18 06:44:55;;;;;;;9.05;5.72;;;;;;;4.21;100.00;100668.38;4983040;28;20116;-67
2023/10/18 06:47:30;;;;;;;21.92;10.30;;;;;;;4.27;100.00;100670.47;4982053;28;20058;-66
2023/10/18 06:49:58;;;;;;;27.10;11.55;;;;;;;4.32;100.00;100670.94;4967029;28;20054;-66
2023/10/18 06:52:28;;;;;;;11.00;5.82;;;;;;;4.40;100.00;100660.88;4984628;28;20120;-66
2023/10/18 06:54:55;;;;;;;12.13;6.35;;;;;;;4.46;100.00;100664.72;4985409;28;20038;-66
2023/10/18 06:57:27;;;;;;;12.52;5.65;;;;;;;4.63;100.00;100660.84;4965447;28;20437;-66
2023/10/18 06:59:54;;;;;;;14.23;5.78;;;;;;;4.90;100.00;100654.44;4966275;28;20053;-66
2023/10/18 07:02:26;;;;;;;11.07;4.78;;;;;;;5.03;100.00;100644.84;4979555;28;20038;-66
2023/10/18 07:04:56;;;;;;;9.32;5.28;;;;;;;5.35;100.00;100639.66;4985236;28;20044;-66
2023/10/18 07:07:23;;;;;;;13.52;5.40;;;;;;;5.43;100.00;100632.09;4979475;28;20111;-66
2023/10/18 07:09:53;;;;;;;12.45;5.78;;;;;;;5.56;99.39;100626.78;4980745;28;20115;-66
2023/10/18 07:12:19;;;;;;;12.32;5.40;;;;;;;5.53;98.38;100616.72;4984600;28;20043;-66
2023/10/18 07:14:46;;;;;;;11.27;6.40;;;;;;;5.53;99.01;100619.28;4982688;28;20042;-66
2023/10/18 07:17:13;;;;;;;11.27;5.20;;;;;;;5.61;98.79;100629.78;4977411;28;20174;-66
2023/10/18 07:19:49;;;;;;;8.50;5.25;;;;;;;5.74;97.55;100621.81;4969085;28;20496;-66
2023/10/18 07:22:19;;;;;;;10.40;5.35;;;;;;;5.88;97.23;100617.28;4964373;28;20078;-66
2023/10/18 07:24:47;;;;;;;9.32;5.32;;;;;;;5.90;96.58;100611.06;4979062;28;20088;-66
2023/10/18 07:27:17;;;;;;;8.30;5.07;;;;;;;5.88;96.99;100612.97;4967914;28;20193;-66
2023/10/18 07:29:49;;;;;;;9.35;5.47;;;;;;;5.91;97.71;100607.53;4988020;28;20042;-66
2023/10/18 07:32:23;;;;;;;10.43;5.70;;;;;;;6.09;96.02;100606.97;4982511;28;20034;-66
2023/10/18 07:34:49;;;;;;;10.75;5.85;;;;;;;6.13;95.61;100604.00;4987049;28;20062;-66
2023/10/18 07:37:17;;;;;;;11.52;6.13;;;;;;;6.27;95.17;100607.94;4985332;28;20133;-66
2023/10/18 07:39:45;;;;;;;14.70;6.22;;;;;;;6.40;93.53;100600.81;4981850;28;20563;-66
2023/10/18 07:42:11;;;;;;;8.55;5.50;;;;;;;6.47;93.98;100598.50;4983279;28;20046;-66
2023/10/18 07:44:41;;;;;;;14.63;5.93;;;;;;;6.58;93.45;100598.38;4988426;28;20038;-66
2023/10/18 07:47:08;;;;;;;12.68;5.45;;;;;;;6.75;92.41;100599.47;4985465;28;20133;-66
2023/10/18 07:49:34;;;;;;;11.90;6.28;;;;;;;6.83;91.74;100594.44;4981829;28;20030;-66
2023/10/18 07:51:59;;;;;;;14.05;6.60;;;;;;;6.94;91.66;100595.25;4984723;28;20150;-66
2023/10/18 07:54:26;;;;;;;9.57;5.85;;;;;;;7.04;90.00;100588.31;4985072;28;20030;-66
2023/10/18 07:56:54;;;;;;;12.93;5.60;;;;;;;7.20;88.25;100580.81;4984060;28;20038;-65
2023/10/18 08:02:07;;;;;;;14.05;5.78;;;;;;;7.55;87.16;100570.81;4967153;28;20149;-66
2023/10/18 08:04:34;;;;;;;11.38;5.07;;;;;;;7.82;85.66;100561.44;4971542;28;20026;-66
2023/10/18 08:07:00;;;;;;;13.60;5.60;;;;;;;8.03;84.91;100561.22;4984769;28;20397;-66
2023/10/18 08:09:29;;;;;;;11.55;5.55;;;;;;;8.09;83.87;100563.22;4966863;28;20038;-66
2023/10/18 08:12:08;;;;;;;11.20;5.60;;;;;;;8.07;83.51;100563.34;4982101;28;20456;-66
2023/10/18 08:14:33;;;;;;;10.82;5.55;;;;;;;8.16;81.88;100559.91;4981591;28;20050;-66
2023/10/18 08:17:08;;;;;;;10.05;5.90;;;;;;;8.47;80.57;100553.59;4966225;28;20081;-66
2023/10/18 08:19:43;;;;;;;12.02;5.85;;;;;;;8.51;79.93;100549.75;4965521;28;20030;-66
2023/10/18 08:22:22;;;;;;;10.13;5.30;;;;;;;8.37;80.48;100551.88;4966108;28;20524;-66
2023/10/18 08:24:50;;;;;;;11.32;5.45;;;;;;;8.18;80.28;100557.97;4983737;28;20039;-66
2023/10/18 08:27:16;;;;;;;12.57;5.68;;;;;;;8.05;80.17;100552.34;4984195;28;20042;-66
2023/10/18 08:29:42;;;;;;;10.90;5.93;;;;;;;8.03;81.65;100551.69;4969124;28;20441;-66
2023/10/18 08:32:17;;;;;;;10.45;5.70;;;;;;;8.08;81.70;100548.66;4983867;28;20093;-66
2023/10/18 08:34:48;;;;;;;11.02;6.13;;;;;;;8.13;81.99;100543.88;4987219;28;20060;-66
2023/10/18 08:37:14;;;;;;;10.55;6.32;;;;;;;8.21;81.43;100537.97;4981059;28;20053;-66
2023/10/18 08:39:55;;;;;;;14.32;6.55;;;;;;;8.24;80.95;100528.16;4980586;28;20862;-66
2023/10/18 08:42:39;;;;;;;10.95;6.15;;;;;;;8.27;80.88;100530.47;4983492;28;20759;-65
2023/10/18 08:45:09;;;;;;;10.75;5.80;;;;;;;8.28;80.78;100526.91;4981911;28;20081;-66
2023/10/18 08:47:39;;;;;;;11.93;6.40;;;;;;;8.48;79.08;100526.81;4979090;28;20039;-66
2023/10/18 08:50:08;;;;;;;12.05;6.07;;;;;;;8.61;79.27;100516.06;4981816;28;20540;-65
2023/10/18 08:52:35;;;;;;;12.35;6.22;;;;;;;8.69;80.38;100514.38;4988374;28;20041;-66
2023/10/18 08:55:22;;;;;;;13.35;6.60;;;;;;;8.73;78.16;100504.53;4984378;28;20043;-66
2023/10/18 08:57:48;;;;;;;12.15;6.38;;;;;;;9.00;78.00;100515.69;4983522;28;20050;-66
2023/10/18 09:01:02;;;;;;;14.57;6.22;;;;;;;9.12;76.45;100510.13;4968400;28;20092;-66
2023/10/18 09:03:07;;;;;;;13.40;6.45;;;;;;;9.02;77.36;100509.41;4963374;28;20038;-66
2023/10/18 09:05:35;;;;;;;11.27;6.13;;;;;;;9.15;76.96;100521.91;4984928;28;20039;-66
2023/10/18 09:08:03;;;;;;;11.07;6.47;;;;;;;9.10;76.30;100512.06;4983178;28;20042;-66
2023/10/18 09:10:43;;;;;;;13.13;6.78;;;;;;;9.23;76.45;100515.97;4968828;28;20045;-66
2023/10/18 09:18:25;;;;;;;;;;;;;;;9.55;75.52;100499.81;4984777;28;19964;-66
2023/10/18 09:20:55;;;;;;;13.30;6.75;;;;;;;9.55;75.39;100490.25;4983987;28;19914;-66
2023/10/18 09:23:24;;;;;;;14.48;6.82;;;;;;;9.51;75.45;100495.88;4978397;28;20121;-66
2023/10/18 09:25:51;;;;;;;12.57;6.32;;;;;;;9.58;74.84;100480.56;4982566;28;20400;-65
2023/10/18 09:28:25;;;;;;;13.95;6.38;;;;;;;9.57;75.27;100479.75;4978869;28;20038;-66
2023/10/18 09:30:54;;;;;;;13.63;7.15;;;;;;;9.77;75.04;100489.84;4965239;28;20041;-66
2023/10/18 09:33:20;;;;;;;14.63;6.57;;;;;;;9.82;74.61;100483.22;4981517;28;20035;-66
2023/10/18 09:35:49;;;;;;;11.05;7.03;;;;;;;9.93;73.57;100482.09;4984625;28;20033;-65
2023/10/18 09:38:18;;;;;;;11.98;6.35;;;;;;;9.93;72.39;100480.31;4979481;28;20034;-66
2023/10/18 09:40:44;;;;;;;16.40;8.07;;;;;;;9.96;73.38;100470.59;4979890;28;20065;-66
2023/10/18 09:43:10;;;;;;;18.08;7.35;;;;;;;10.07;72.37;100458.16;4986618;23;20190;-67
2023/10/18 09:45:36;;;;;;;11.30;6.93;;;;;;;10.13;72.74;100456.69;4960666;28;20528;-68
2023/10/18 09:48:02;;;;;;;13.10;6.97;;;;;;;10.18;72.96;100462.22;4964786;28;20133;-66
2023/10/18 09:50:31;;;;;;;12.45;7.10;;;;;;;10.38;71.89;100456.72;4946865;28;20506;-67
2023/10/18 09:52:57;;;;;;;12.32;7.05;;;;;;;10.36;70.83;100451.72;4952213;28;20034;-66
2023/10/18 09:55:27;;;;;;;13.50;6.78;;;;;;;10.44;71.48;100433.56;4963032;28;20041;-67
2023/10/18 09:58:02;;;;;;;13.95;6.78;;;;;;;10.42;70.22;100432.91;4966135;28;20038;-66
2023/10/18 10:00:40;;;;;;;11.20;6.40;;;;;;;10.52;71.22;100425.75;4961600;28;20099;-66
2023/10/18 10:03:08;;;;;;;12.68;6.50;;;;;;;10.65;70.55;100424.47;4961810;28;20063;-67
2023/10/18 10:05:41;;;;;;;11.75;6.50;;;;;;;10.76;70.90;100420.72;4961773;28;20034;-68
2023/10/18 10:08:07;;;;;;;11.68;6.70;;;;;;;10.94;69.68;100415.31;4963246;28;20097;-66
2023/10/18 10:10:43;;;;;;;14.02;6.35;;;;;;;11.02;70.22;100402.28;4962316;28;20393;-67
2023/10/18 10:13:25;;;;;;;12.57;6.68;;;;;;;11.13;69.26;100407.09;4961938;28;20062;-68
2023/10/18 10:16:08;;;;;;;12.80;6.25;;;;;;;11.17;68.43;100389.41;4965656;28;20369;-67
2023/10/18 10:18:38;;;;;;;13.73;6.05;;;;;;;11.23;66.86;100397.34;4964208;28;20050;-66
2023/10/18 10:21:08;;;;;;;11.55;6.38;;;;;;;11.25;66.52;100392.00;4972272;28;20032;-67
2023/10/18 10:23:38;;;;;;;9.93;6.50;;;;;;;11.24;66.89;100373.00;4945231;28;20046;-67
2023/10/18 10:26:16;;;;;;;12.60;6.50;;;;;;;11.41;66.46;100373.72;4965632;28;20572;-67
2023/10/18 10:29:09;;;;;;;12.23;6.45;;;;;;;11.50;66.37;100364.88;4962649;28;20108;-68
2023/10/18 10:31:46;;;;;;;15.50;5.68;;;;;;;11.56;65.45;100360.78;4978779;28;20046;-67
2023/10/18 10:34:19;;;;;;;12.38;6.20;;;;;;;11.59;65.18;100360.47;4963990;28;20431;-67
2023/10/18 10:36:46;;;;;;;10.73;5.85;;;;;;;11.64;64.01;100363.34;4964821;28;20043;-68
2023/10/18 10:39:23;;;;;;;20.88;6.43;;;;;;;11.79;64.76;100353.03;4963398;28;20035;-68
2023/10/18 10:41:49;;;;;;;13.55;5.95;;;;;;;11.80;64.81;100344.22;4969983;28;20039;-67
2023/10/18 10:44:23;;;;;;;11.27;6.10;;;;;;;11.77;63.43;100331.59;4964935;28;20109;-67
2023/10/18 10:46:50;;;;;;;13.65;6.05;;;;;;;11.84;64.20;100326.50;4960248;28;20061;-67
2023/10/18 10:49:58;;;;;;;10.93;5.78;;;;;;;11.81;62.01;100314.69;4948357;28;20497;-67
2023/10/18 10:52:29;;;;;;;9.18;5.70;;;;;;;11.91;63.11;100317.06;4926673;28;20047;-66
2023/10/18 10:55:02;;;;;;;10.55;5.97;;;;;;;11.93;64.02;100301.31;4939900;28;20027;-68
2023/10/18 10:57:30;;;;;;;9.73;5.35;;;;;;;12.07;63.81;100298.72;4942063;28;20047;-67
2023/10/18 10:59:57;;;;;;;12.38;5.45;;;;;;;12.10;64.51;100300.16;4943300;28;20039;-68
2023/10/18 11:02:39;;;;;;;8.68;5.07;;;;;;;12.14;65.05;100291.00;4944648;28;20043;-66
2023/10/18 11:05:15;;;;;;;8.63;5.28;;;;;;;12.24;63.02;100281.16;4947861;28;20047;-67
2023/10/18 11:07:42;;;;;;;16.90;5.60;;;;;;;12.24;64.34;100278.56;4961960;28;20134;-66
2023/10/18 11:10:14;;;;;;;11.43;5.63;;;;;;;12.28;65.12;100276.41;4961367;28;20050;-66
2023/10/18 11:12:40;;;;;;;15.50;6.10;;;;;;;12.46;64.98;100269.03;4947952;28;20050;-67
2023/10/18 11:15:16;;;;;;;8.52;5.30;;;;;;;12.52;63.72;100269.31;4947623;28;20067;-66
2023/10/18 11:17:44;;;;;;;12.60;5.72;;;;;;;12.40;64.46;100261.16;4950643;28;20034;-67
2023/10/18 11:20:19;;;;;;;12.15;5.80;;;;;;;12.57;63.16;100249.56;4954493;28;20209;-67
2023/10/18 11:22:48;;;;;;;10.80;5.90;;;;;;;12.54;64.62;100254.31;4947053;28;20190;-66
2023/10/18 11:25:20;;;;;;;11.93;5.38;;;;;;;12.68;63.67;100256.09;4944474;28;20142;-67
2023/10/18 11:27:45;;;;;;;13.20;6.55;;;;;;;12.64;61.47;100258.25;4961503;28;20444;-66
2023/10/18 11:30:15;;;;;;;10.88;5.63;;;;;;;12.75;62.34;100250.97;4945151;28;20035;-66
2023/10/18 11:32:48;;;;;;;10.15;5.30;;;;;;;12.79;61.76;100236.59;4951298;28;20118;-66
2023/10/18 11:35:26;;;;;;;10.20;5.00;;;;;;;12.92;62.33;100234.16;4945373;28;20035;-66
2023/10/18 11:37:52;;;;;;;9.57;5.32;;;;;;;13.07;62.52;100226.25;4948918;28;20069;-67
2023/10/18 11:40:29;;;;;;;10.80;5.82;;;;;;;13.05;59.53;100225.66;4960510;28;20039;-66
2023/10/18 11:43:08;;;;;;;11.35;5.05;;;;;;;13.12;60.38;100218.72;4944240;28;20062;-67
2023/10/18 11:45:39;;;;;;;9.75;4.95;;;;;;;13.16;60.34;100214.75;4946140;28;20047;-66
2023/10/18 11:48:11;;;;;;;8.43;4.88;;;;;;;13.12;60.25;100208.31;4945984;28;20511;-66
2023/10/18 11:50:49;;;;;;;11.43;4.70;;;;;;;13.25;60.71;100205.81;4947379;28;20041;-66
2023/10/18 11:53:17;;;;;;;9.07;5.22;;;;;;;13.18;60.30;100180.72;4941540;28;20043;-67
2023/10/18 11:55:59;;;;;;;9.80;4.85;;;;;;;13.22;61.00;100177.56;4950178;28;20523;-66
2023/10/18 11:58:26;;;;;;;12.50;5.70;;;;;;;13.24;60.06;100169.53;4948734;28;20417;-67
2023/10/18 12:01:00;;;;;;;6.55;4.63;;;;;;;13.20;61.44;100178.72;4945134;28;20035;-66
2023/10/18 12:03:29;;;;;;;8.65;4.93;;;;;;;13.28;60.60;100162.16;4942099;28;20095;-67
2023/10/18 12:05:55;;;;;;;8.15;4.28;;;;;;;13.22;60.38;100163.72;4942411;28;20441;-66
2023/10/18 12:08:23;;;;;;;10.38;5.47;;;;;;;13.35;59.54;100152.63;4944415;28;20584;-66
2023/10/18 12:10:52;;;;;;;10.18;4.75;;;;;;;13.37;61.00;100135.03;4962937;28;20044;-67
2023/10/18 12:13:20;;;;;;;11.85;4.20;;;;;;;13.39;59.20;100139.06;4942328;28;20046;-66
2023/10/18 12:15:49;;;;;;;6.35;3.80;;;;;;;13.48;60.76;100125.88;4950906;28;20027;-67
2023/10/18 12:18:16;;;;;;;7.00;3.70;;;;;;;13.52;61.64;100127.91;4949085;28;20043;-67